Box Elder, South Dakota
Current Conditions -  °F | °C
As of 12:18 AM on Monday 22 Dec 2014 (Local Time) from KRCA Reporting Station
Scattered Clouds Scattered Clouds  
Wind Chill: 26°   Ceiling: Unl
Heat Index: 37°   Visibility: 10mi
Dew Point: 34°   Wind: 25mph
Humidity: 87%   Direction: 320°NW
Pressure: 29.49"   Gusts: 33mph
Location:  44.11°N, 103.07°W
Report Text: KRCA 220718Z 32022G29KT 10SM SCT046 03/01 A2949 RMK AO2A
Loading
Personal Weather Stations






























Interactive Weather Map New forecast layout! Learn more

10-Day Weather Forecast

Advertisements
Track Severe Weather on mobile